createdAt,value
2022-12-31T00:00:10.087Z,7.50
2022-12-31T00:01:15.960Z,7.32
2022-12-31T00:02:18.804Z,6.93
2022-12-31T00:03:22.430Z,7.50
2022-12-31T00:04:26.062Z,7.10
2022-12-31T00:05:30.803Z,7.15
2022-12-31T00:06:36.186Z,8.27
2022-12-31T00:08:40.711Z,7.40
2022-12-31T00:09:44.536Z,7.45
2022-12-31T00:10:48.001Z,5.70
2022-12-31T00:11:50.558Z,6.13
2022-12-31T00:12:54.050Z,6.40
2022-12-31T00:13:57.838Z,5.03
2022-12-31T00:15:00.266Z,5.13
2022-12-31T00:16:12.257Z,5.57
2022-12-31T00:17:14.987Z,5.15
2022-12-31T00:18:18.521Z,5.35
2022-12-31T00:19:20.981Z,5.00
2022-12-31T00:20:24.401Z,6.07
2022-12-31T00:21:29.214Z,6.50
2022-12-31T00:22:31.835Z,6.38
2022-12-31T00:23:35.788Z,6.38
2022-12-31T00:24:38.298Z,6.13
2022-12-31T00:25:43.171Z,5.30
2022-12-31T00:26:45.834Z,5.00
2022-12-31T00:27:49.292Z,5.25
2022-12-31T00:28:52.687Z,5.25
2022-12-31T00:30:00.882Z,5.03
2022-12-31T00:31:08.382Z,4.70
2022-12-31T00:32:12.093Z,4.38
2022-12-31T00:33:14.522Z,5.38
2022-12-31T00:34:17.907Z,4.88
2022-12-31T00:35:20.259Z,4.90
2022-12-31T00:36:25.940Z,4.70
2022-12-31T00:37:28.220Z,5.07
2022-12-31T00:38:31.911Z,5.07
2022-12-31T00:39:34.415Z,5.13
2022-12-31T00:40:37.959Z,4.50
2022-12-31T00:41:44.161Z,4.80
2022-12-31T00:42:47.956Z,4.97
2022-12-31T00:43:51.033Z,5.40
2022-12-31T00:44:54.540Z,4.75
2022-12-31T00:45:56.943Z,4.78
2022-12-31T00:47:00.306Z,5.10
2022-12-31T00:48:02.836Z,4.55
2022-12-31T00:49:06.693Z,5.28
2022-12-31T00:50:09.608Z,4.90
2022-12-31T00:51:15.720Z,4.90
2022-12-31T00:52:18.414Z,4.47
2022-12-31T00:53:22.588Z,5.28
2022-12-31T00:54:25.068Z,4.95
2022-12-31T00:55:28.291Z,3.90
2022-12-31T00:56:32.254Z,4.45
2022-12-31T00:57:37.255Z,4.33
2022-12-31T00:58:40.145Z,3.58
2022-12-31T00:59:43.626Z,3.85
2022-12-31T01:00:45.962Z,3.67
2022-12-31T01:01:50.240Z,3.30
2022-12-31T01:02:53.184Z,3.30
2022-12-31T01:03:59.823Z,3.85
2022-12-31T01:05:02.180Z,3.60
2022-12-31T01:06:06.037Z,3.17
2022-12-31T01:07:08.602Z,2.85
2022-12-31T01:08:12.037Z,4.20
2022-12-31T01:09:15.876Z,3.42
2022-12-31T01:10:39.379Z,3.67
2022-12-31T01:11:42.268Z,3.47
2022-12-31T01:12:47.352Z,3.10
2022-12-31T01:13:51.810Z,3.58
2022-12-31T01:14:55.192Z,3.05
2022-12-31T01:15:57.583Z,3.90
2022-12-31T01:17:01.117Z,3.50
2022-12-31T01:18:03.898Z,3.53
2022-12-31T01:19:09.453Z,3.33
2022-12-31T01:20:12.029Z,3.40
2022-12-31T01:21:16.474Z,3.88
2022-12-31T01:22:18.950Z,3.40
2022-12-31T01:23:22.543Z,4.18
2022-12-31T01:24:26.470Z,3.70
2022-12-31T01:25:29.062Z,3.30
2022-12-31T01:26:32.611Z,3.50
2022-12-31T01:27:35.018Z,3.17
2022-12-31T01:28:40.756Z,3.25
2022-12-31T01:29:43.266Z,3.10
2022-12-31T01:30:46.984Z,3.17
2022-12-31T01:31:49.428Z,3.33
2022-12-31T01:32:53.030Z,3.20
2022-12-31T01:33:55.998Z,3.83
2022-12-31T01:34:59.381Z,3.80
2022-12-31T01:36:07.611Z,3.40
2022-12-31T01:37:10.996Z,3.50
2022-12-31T01:38:13.325Z,4.57
2022-12-31T01:39:16.862Z,3.20
2022-12-31T01:40:19.166Z,3.47
2022-12-31T01:41:24.562Z,3.72
2022-12-31T01:42:27.042Z,3.00
2022-12-31T01:43:48.837Z,3.50
2022-12-31T01:44:53.828Z,3.58
2022-12-31T01:45:57.152Z,3.30
2022-12-31T01:47:01.289Z,3.28
2022-12-31T01:48:04.634Z,3.15
2022-12-31T01:49:13.152Z,3.58
2022-12-31T01:50:21.807Z,3.10
2022-12-31T01:51:27.537Z,3.33
2022-12-31T01:52:34.097Z,2.65
2022-12-31T01:53:40.724Z,2.75
2022-12-31T01:54:48.488Z,3.13
2022-12-31T01:55:57.375Z,3.38
2022-12-31T01:57:00.411Z,3.50
2022-12-31T01:58:08.615Z,4.22
2022-12-31T01:59:14.889Z,3.22
2022-12-31T02:00:18.913Z,3.47
2022-12-31T02:01:27.209Z,3.83
2022-12-31T02:02:29.831Z,3.33
2022-12-31T02:03:33.454Z,3.40
2022-12-31T02:04:35.898Z,2.97
2022-12-31T02:05:46.301Z,3.90
2022-12-31T02:06:53.452Z,3.08
2022-12-31T02:07:57.847Z,3.58
2022-12-31T02:09:01.065Z,3.30
2022-12-31T02:10:04.536Z,3.65
2022-12-31T02:11:22.073Z,3.17
2022-12-31T02:12:25.869Z,2.45
2022-12-31T02:13:28.295Z,2.90
2022-12-31T02:14:35.052Z,2.90
2022-12-31T02:15:48.891Z,2.90
2022-12-31T02:16:57.696Z,3.10
2022-12-31T02:18:11.378Z,2.97
2022-12-31T02:19:40.585Z,3.20
2022-12-31T02:21:10.430Z,2.42
2022-12-31T02:22:23.254Z,2.55
2022-12-31T02:24:02.762Z,3.72
2022-12-31T02:25:22.052Z,2.45
2022-12-31T02:26:37.618Z,2.90
2022-12-31T02:27:52.838Z,2.00
2022-12-31T02:29:29.305Z,3.13
2022-12-31T02:30:36.079Z,2.70
2022-12-31T02:31:45.601Z,2.95
2022-12-31T02:32:55.957Z,2.45
2022-12-31T02:34:03.111Z,2.35
2022-12-31T02:35:12.183Z,2.97
2022-12-31T02:36:21.980Z,2.70
2022-12-31T02:37:27.685Z,2.13
2022-12-31T02:38:34.659Z,2.10
2022-12-31T02:39:38.138Z,2.85
2022-12-31T02:40:41.879Z,3.47
2022-12-31T02:41:51.391Z,2.67
2022-12-31T02:42:55.807Z,2.38
2022-12-31T02:43:58.583Z,2.97
2022-12-31T02:45:01.994Z,3.10
2022-12-31T02:46:21.877Z,2.60
2022-12-31T02:47:40.820Z,2.53
2022-12-31T02:48:50.620Z,2.50
2022-12-31T02:50:06.243Z,2.53
2022-12-31T02:51:20.386Z,2.60
2022-12-31T02:52:34.114Z,2.40
2022-12-31T02:54:01.758Z,2.60
2022-12-31T02:55:11.561Z,2.25
2022-12-31T02:56:20.099Z,2.25
2022-12-31T02:57:30.867Z,2.17
2022-12-31T02:59:00.607Z,2.42
2022-12-31T03:00:25.312Z,2.20
2022-12-31T03:02:08.373Z,2.10
2022-12-31T03:03:13.249Z,2.73
2022-12-31T03:04:32.331Z,2.60
2022-12-31T03:05:41.656Z,2.60
2022-12-31T03:06:44.416Z,2.38
2022-12-31T03:07:48.192Z,2.20
2022-12-31T03:09:11.221Z,2.67
2022-12-31T03:10:14.974Z,2.65
2022-12-31T03:11:37.601Z,2.65
2022-12-31T03:12:49.028Z,3.08
2022-12-31T03:13:51.604Z,2.80
2022-12-31T03:14:55.395Z,2.70
2022-12-31T03:15:59.184Z,2.58
2022-12-31T03:17:03.143Z,3.17
2022-12-31T03:18:08.727Z,2.92
2022-12-31T03:19:29.428Z,2.78
2022-12-31T03:20:52.895Z,3.00
2022-12-31T03:22:13.932Z,1.98
2022-12-31T03:23:21.113Z,2.50
2022-12-31T03:24:42.522Z,2.80
2022-12-31T03:25:45.731Z,2.60
2022-12-31T03:26:48.628Z,2.70
2022-12-31T03:27:53.245Z,2.53
2022-12-31T03:28:56.941Z,2.83
2022-12-31T03:29:59.412Z,2.42
2022-12-31T03:31:04.424Z,2.58
2022-12-31T03:32:08.271Z,2.53
2022-12-31T03:33:12.844Z,2.83
2022-12-31T03:34:15.738Z,2.15
2022-12-31T03:35:20.786Z,2.55
2022-12-31T03:36:24.418Z,2.78
2022-12-31T03:37:26.793Z,2.80
2022-12-31T03:38:30.486Z,2.47
2022-12-31T03:39:32.947Z,2.55
2022-12-31T03:40:40.374Z,2.90
2022-12-31T03:41:42.699Z,3.00
2022-12-31T03:42:46.218Z,2.70
2022-12-31T03:43:48.582Z,2.78
2022-12-31T03:44:52.076Z,2.83
2022-12-31T03:45:58.797Z,3.03
2022-12-31T03:47:01.203Z,2.33
2022-12-31T03:48:08.227Z,2.87
2022-12-31T03:49:10.726Z,2.60
2022-12-31T03:50:17.005Z,2.75
2022-12-31T03:51:19.731Z,2.60
2022-12-31T03:52:23.581Z,2.50
2022-12-31T03:53:27.557Z,2.33
2022-12-31T03:54:29.951Z,2.63
2022-12-31T03:55:33.463Z,2.33
2022-12-31T03:56:35.983Z,2.13
2022-12-31T03:57:40.000Z,2.55
2022-12-31T03:58:42.541Z,2.23
2022-12-31T03:59:46.240Z,2.70
2022-12-31T04:00:49.316Z,2.20
2022-12-31T04:01:53.015Z,2.15
2022-12-31T04:02:57.361Z,2.05
2022-12-31T04:04:01.375Z,2.10
2022-12-31T04:05:05.389Z,1.77
2022-12-31T04:06:08.080Z,1.88
2022-12-31T04:07:11.631Z,1.83
2022-12-31T04:08:13.990Z,1.90
2022-12-31T04:09:17.525Z,2.30
2022-12-31T04:10:21.487Z,2.05
2022-12-31T04:11:24.110Z,2.30
2022-12-31T04:12:27.993Z,1.85
2022-12-31T04:13:30.556Z,2.22
2022-12-31T04:14:34.028Z,2.20
2022-12-31T04:15:37.425Z,2.50
2022-12-31T04:16:39.814Z,2.20
2022-12-31T04:17:43.363Z,2.40
2022-12-31T04:18:45.863Z,2.05
2022-12-31T04:19:50.725Z,2.07
2022-12-31T04:20:54.519Z,2.30
2022-12-31T04:21:56.838Z,2.22
2022-12-31T04:23:00.482Z,2.17
2022-12-31T04:24:03.360Z,2.10
2022-12-31T04:25:11.342Z,2.33
2022-12-31T04:26:13.917Z,1.92
2022-12-31T04:27:17.598Z,2.13
2022-12-31T04:28:19.998Z,2.00
2022-12-31T04:29:23.713Z,2.08
2022-12-31T04:30:26.507Z,2.07
2022-12-31T04:31:29.946Z,2.05
2022-12-31T04:32:32.687Z,2.05
2022-12-31T04:33:36.289Z,2.00
2022-12-31T04:34:39.873Z,1.80
2022-12-31T04:35:44.071Z,1.60
2022-12-31T04:36:47.470Z,2.03
2022-12-31T04:37:49.777Z,1.63
2022-12-31T04:38:53.415Z,1.45
2022-12-31T04:40:00.334Z,1.58
2022-12-31T04:41:19.188Z,1.67
2022-12-31T04:42:22.670Z,2.00
2022-12-31T04:43:25.023Z,1.40
2022-12-31T04:44:28.530Z,1.90
2022-12-31T04:45:30.951Z,1.52
2022-12-31T04:46:35.337Z,1.63
2022-12-31T04:47:37.656Z,1.60
2022-12-31T04:48:41.171Z,1.73
2022-12-31T04:49:44.587Z,1.52
2022-12-31T04:50:48.382Z,1.52
2022-12-31T04:51:51.721Z,1.90
2022-12-31T04:52:54.082Z,1.40
2022-12-31T04:53:57.515Z,2.10
2022-12-31T04:55:00.860Z,2.47
2022-12-31T04:56:06.168Z,1.80
2022-12-31T04:57:09.662Z,1.75
2022-12-31T04:58:12.262Z,1.77
2022-12-31T04:59:15.818Z,1.83
2022-12-31T05:00:18.930Z,1.80
2022-12-31T05:01:23.736Z,1.63
2022-12-31T05:02:26.238Z,1.80
2022-12-31T05:03:30.127Z,1.75
2022-12-31T05:04:33.603Z,2.20
2022-12-31T05:05:39.785Z,2.00
2022-12-31T05:06:44.525Z,2.33
2022-12-31T05:07:46.899Z,1.95
2022-12-31T05:08:51.113Z,1.98
2022-12-31T05:09:53.426Z,1.83
2022-12-31T05:10:57.059Z,2.08
2022-12-31T05:11:59.578Z,2.03
2022-12-31T05:13:03.263Z,1.87
2022-12-31T05:14:06.705Z,1.90
2022-12-31T05:15:10.040Z,1.70
2022-12-31T05:16:13.507Z,2.00
2022-12-31T05:17:15.901Z,1.90
2022-12-31T05:18:19.823Z,1.80
2022-12-31T05:19:24.814Z,2.20
2022-12-31T05:20:27.655Z,2.20
2022-12-31T05:21:30.981Z,2.20
2022-12-31T05:22:34.866Z,2.00
2022-12-31T05:23:38.340Z,2.23
2022-12-31T05:24:40.662Z,2.40
2022-12-31T05:25:45.525Z,2.80
2022-12-31T05:26:47.963Z,2.08
2022-12-31T05:27:51.473Z,2.10
2022-12-31T05:28:55.426Z,1.83
2022-12-31T05:29:57.722Z,2.17
2022-12-31T05:31:02.054Z,2.17
2022-12-31T05:32:04.653Z,2.13
2022-12-31T05:33:08.106Z,2.67
2022-12-31T05:34:10.351Z,2.37
2022-12-31T05:35:14.060Z,2.28
2022-12-31T05:36:16.525Z,2.20
2022-12-31T05:37:19.930Z,2.00
2022-12-31T05:38:23.827Z,2.00
2022-12-31T05:39:27.339Z,2.05
2022-12-31T05:40:29.869Z,1.60
2022-12-31T05:41:33.539Z,1.67
2022-12-31T05:42:36.058Z,1.85
2022-12-31T05:43:39.519Z,2.10
2022-12-31T05:44:41.907Z,1.73
2022-12-31T05:45:45.327Z,1.90
2022-12-31T05:46:47.723Z,2.10
2022-12-31T05:47:51.125Z,1.80
2022-12-31T05:48:54.806Z,1.70
2022-12-31T05:49:57.041Z,1.92
2022-12-31T05:51:00.446Z,2.00
2022-12-31T05:52:02.795Z,2.28
2022-12-31T05:53:06.410Z,2.05
2022-12-31T05:54:10.640Z,2.20
2022-12-31T05:55:14.906Z,2.20
2022-12-31T05:56:17.953Z,2.08
2022-12-31T05:57:21.355Z,1.90
2022-12-31T05:58:23.976Z,2.10
2022-12-31T05:59:27.662Z,2.33
2022-12-31T06:00:31.418Z,2.35
2022-12-31T06:01:33.989Z,2.40
2022-12-31T06:02:37.705Z,2.42
2022-12-31T06:03:42.866Z,1.98
2022-12-31T06:04:45.570Z,2.10
2022-12-31T06:05:48.904Z,1.80
2022-12-31T06:06:51.911Z,2.28
2022-12-31T06:07:55.393Z,2.40
2022-12-31T06:08:57.888Z,2.17
2022-12-31T06:10:02.956Z,1.90
2022-12-31T06:11:05.730Z,2.67
2022-12-31T06:12:09.914Z,2.20
2022-12-31T06:13:13.519Z,1.77
2022-12-31T06:14:16.431Z,2.30
2022-12-31T06:15:20.298Z,2.40
2022-12-31T06:16:22.806Z,2.03
2022-12-31T06:17:26.882Z,2.00
2022-12-31T06:18:29.593Z,1.60
2022-12-31T06:19:33.071Z,1.70
2022-12-31T06:20:38.256Z,1.70
2022-12-31T06:21:40.743Z,1.73
2022-12-31T06:22:44.288Z,1.70
2022-12-31T06:23:47.022Z,1.67
2022-12-31T06:24:50.519Z,2.95
2022-12-31T06:25:54.231Z,3.20
2022-12-31T06:26:57.555Z,3.20
2022-12-31T06:28:00.101Z,3.00
2022-12-31T06:29:03.555Z,2.60
2022-12-31T06:30:08.527Z,2.97
2022-12-31T06:31:13.362Z,2.90
2022-12-31T06:32:17.632Z,2.50
2022-12-31T06:33:20.008Z,2.17
2022-12-31T06:34:23.394Z,2.22
2022-12-31T06:35:25.749Z,2.42
2022-12-31T06:36:29.567Z,2.20
2022-12-31T06:37:31.912Z,1.97
2022-12-31T06:38:38.095Z,2.40
2022-12-31T06:39:41.512Z,2.63
2022-12-31T06:40:43.909Z,2.13
2022-12-31T06:41:48.866Z,2.30
2022-12-31T06:42:55.997Z,2.67
2022-12-31T06:44:02.972Z,2.20
2022-12-31T06:45:06.584Z,2.08
2022-12-31T06:46:12.380Z,2.33
2022-12-31T06:47:14.680Z,2.45
2022-12-31T06:48:18.810Z,2.03
2022-12-31T06:49:21.177Z,1.60
2022-12-31T06:50:24.587Z,2.08
2022-12-31T06:51:26.965Z,1.90
2022-12-31T06:52:30.493Z,2.00
2022-12-31T06:53:33.360Z,2.53
2022-12-31T06:54:37.506Z,2.00
2022-12-31T06:55:40.609Z,2.00
2022-12-31T06:56:44.683Z,2.20
2022-12-31T06:57:49.246Z,2.00
2022-12-31T06:58:54.091Z,2.50
2022-12-31T06:59:57.992Z,2.05
2022-12-31T07:01:06.849Z,2.20
2022-12-31T07:02:33.835Z,2.08
2022-12-31T07:03:44.187Z,2.13
2022-12-31T07:05:09.351Z,2.40
2022-12-31T07:06:16.650Z,2.67
2022-12-31T07:07:27.471Z,2.50
2022-12-31T07:08:44.264Z,2.80
2022-12-31T07:09:57.176Z,2.60
2022-12-31T07:11:06.646Z,2.30
2022-12-31T07:12:20.898Z,2.15
2022-12-31T07:13:47.885Z,1.98
2022-12-31T07:14:55.467Z,2.00
2022-12-31T07:16:17.950Z,1.67
2022-12-31T07:17:32.536Z,1.70
2022-12-31T07:18:45.214Z,2.25
2022-12-31T07:19:59.865Z,2.20
2022-12-31T07:21:02.984Z,1.83
2022-12-31T07:22:13.646Z,1.95
2022-12-31T07:23:16.623Z,1.97
2022-12-31T07:24:20.809Z,2.38
2022-12-31T07:25:24.133Z,2.05
2022-12-31T07:26:55.963Z,2.10
2022-12-31T07:28:12.866Z,1.80
2022-12-31T07:29:22.197Z,2.00
2022-12-31T07:30:31.420Z,2.13
2022-12-31T07:31:48.511Z,1.75
2022-12-31T07:33:26.222Z,2.25
2022-12-31T07:34:41.513Z,2.35
2022-12-31T07:35:51.923Z,1.80
2022-12-31T07:37:04.472Z,2.05
2022-12-31T07:38:15.628Z,2.20
2022-12-31T07:39:29.643Z,1.92
2022-12-31T07:40:39.779Z,2.20
2022-12-31T07:41:52.736Z,2.20
2022-12-31T07:43:07.637Z,2.05
2022-12-31T07:44:25.150Z,1.67
2022-12-31T07:45:37.558Z,2.45
2022-12-31T07:46:49.966Z,4.82
2022-12-31T07:47:58.910Z,4.47
2022-12-31T07:49:06.288Z,3.47
2022-12-31T07:50:17.260Z,2.88
2022-12-31T07:51:20.481Z,3.35
2022-12-31T07:52:24.826Z,2.40
2022-12-31T07:53:28.252Z,2.58
2022-12-31T07:54:31.723Z,3.15
2022-12-31T07:55:34.832Z,3.85
2022-12-31T07:56:38.809Z,4.95
2022-12-31T07:57:50.995Z,4.88
2022-12-31T07:59:05.881Z,6.33
2022-12-31T08:00:15.902Z,6.28
2022-12-31T08:01:31.796Z,5.22
2022-12-31T08:02:51.450Z,5.57
2022-12-31T08:03:58.147Z,4.30
2022-12-31T08:05:09.686Z,3.47
2022-12-31T08:06:18.496Z,3.33
2022-12-31T08:07:32.441Z,3.30
2022-12-31T08:08:46.929Z,3.63
2022-12-31T08:10:02.694Z,2.55
2022-12-31T08:11:16.914Z,2.87
2022-12-31T08:12:21.379Z,3.22
2022-12-31T08:13:24.157Z,2.90
2022-12-31T08:14:28.810Z,2.85
2022-12-31T08:15:33.369Z,4.15
2022-12-31T08:16:37.496Z,4.18
2022-12-31T08:17:40.400Z,3.38
2022-12-31T08:18:44.258Z,3.28
2022-12-31T08:19:47.452Z,4.15
2022-12-31T08:21:03.748Z,2.80
2022-12-31T08:22:22.713Z,2.23
2022-12-31T08:23:30.466Z,3.00
2022-12-31T08:24:47.375Z,3.13
2022-12-31T08:26:22.388Z,3.08
2022-12-31T08:27:35.725Z,3.20
2022-12-31T08:29:02.498Z,2.83
2022-12-31T08:30:10.292Z,3.47
2022-12-31T08:31:19.248Z,2.85
2022-12-31T08:32:25.460Z,3.10
2022-12-31T08:33:35.196Z,3.30
2022-12-31T08:34:49.242Z,3.13
2022-12-31T08:36:07.724Z,4.57
2022-12-31T08:37:18.101Z,3.22
2022-12-31T08:38:31.257Z,2.63
2022-12-31T08:39:57.596Z,2.50
2022-12-31T08:41:09.698Z,2.20
2022-12-31T08:42:23.548Z,2.38
2022-12-31T08:43:42.366Z,2.47
2022-12-31T08:44:53.895Z,2.33
2022-12-31T08:45:59.253Z,2.90
2022-12-31T08:47:16.983Z,2.63
2022-12-31T08:48:30.070Z,2.28
2022-12-31T08:49:35.942Z,2.63
2022-12-31T08:50:40.109Z,2.63
2022-12-31T08:51:42.773Z,2.30
2022-12-31T08:52:47.394Z,2.17
2022-12-31T08:53:50.909Z,2.67
2022-12-31T08:54:55.058Z,2.20
2022-12-31T08:56:06.731Z,3.03
2022-12-31T08:57:22.261Z,2.50
2022-12-31T08:58:40.197Z,3.30
2022-12-31T08:59:55.815Z,2.88
2022-12-31T09:00:59.529Z,3.28
2022-12-31T09:02:24.425Z,2.88
2022-12-31T09:03:44.516Z,3.03
2022-12-31T09:04:56.550Z,3.10
2022-12-31T09:06:08.982Z,2.58
2022-12-31T09:07:12.705Z,2.90
2022-12-31T09:08:24.751Z,2.35
2022-12-31T09:09:38.470Z,2.65
2022-12-31T09:10:47.563Z,3.47
2022-12-31T09:11:57.612Z,3.70
2022-12-31T09:13:16.611Z,3.15
2022-12-31T09:14:37.298Z,2.53
2022-12-31T09:15:44.088Z,3.35
2022-12-31T09:16:56.568Z,2.85
2022-12-31T09:18:00.905Z,2.38
2022-12-31T09:19:04.342Z,2.30
2022-12-31T09:20:14.456Z,2.22
2022-12-31T09:21:18.345Z,2.20
2022-12-31T09:22:21.326Z,2.37
2022-12-31T09:23:25.504Z,2.20
2022-12-31T09:24:28.366Z,2.88
2022-12-31T09:25:33.229Z,2.70
2022-12-31T09:26:46.446Z,2.42
2022-12-31T09:28:01.713Z,2.22
2022-12-31T09:29:15.308Z,2.22
2022-12-31T09:30:20.055Z,2.20
2022-12-31T09:31:31.903Z,2.70
2022-12-31T09:32:46.099Z,2.13
2022-12-31T09:33:55.819Z,2.03
2022-12-31T09:35:07.535Z,2.40
2022-12-31T09:36:18.399Z,2.10
2022-12-31T09:37:30.795Z,2.50
2022-12-31T09:38:42.193Z,2.08
2022-12-31T09:39:47.038Z,1.88
2022-12-31T09:41:16.805Z,2.22
2022-12-31T09:42:58.330Z,1.90
2022-12-31T09:44:49.332Z,2.13
2022-12-31T09:46:14.817Z,1.77
2022-12-31T09:47:52.081Z,2.00
2022-12-31T09:49:32.209Z,1.27
2022-12-31T09:50:53.792Z,1.77
2022-12-31T09:52:10.997Z,1.33
2022-12-31T09:53:33.748Z,2.20
2022-12-31T09:54:49.343Z,1.52
2022-12-31T09:55:58.012Z,2.08
2022-12-31T09:57:22.592Z,1.70
2022-12-31T09:58:39.432Z,2.28
2022-12-31T09:59:49.013Z,2.53
2022-12-31T10:00:59.058Z,1.90
2022-12-31T10:02:21.857Z,1.77
2022-12-31T10:03:44.182Z,1.90
2022-12-31T10:05:02.764Z,1.75
2022-12-31T10:06:25.736Z,2.30
2022-12-31T10:07:53.554Z,1.65
2022-12-31T10:09:17.062Z,2.08
2022-12-31T10:10:25.170Z,1.70
2022-12-31T10:11:34.197Z,1.67
2022-12-31T10:13:03.339Z,1.70
2022-12-31T10:14:25.737Z,1.60
2022-12-31T10:15:55.062Z,1.83
2022-12-31T10:17:12.603Z,1.60
2022-12-31T10:18:28.847Z,1.50
2022-12-31T10:20:03.907Z,1.60
2022-12-31T10:21:18.512Z,1.95
2022-12-31T10:22:47.059Z,2.00
2022-12-31T10:24:14.352Z,2.00
2022-12-31T10:25:47.870Z,2.10
2022-12-31T10:27:06.249Z,2.05
2022-12-31T10:28:21.865Z,2.20
2022-12-31T10:29:41.203Z,2.35
2022-12-31T10:30:55.302Z,2.30
2022-12-31T10:32:14.909Z,2.40
2022-12-31T10:33:27.879Z,2.72
2022-12-31T10:34:39.839Z,2.85
2022-12-31T10:35:52.048Z,2.45
2022-12-31T10:36:59.613Z,2.55
2022-12-31T10:38:20.357Z,2.63
2022-12-31T10:39:37.665Z,2.20
2022-12-31T10:41:16.180Z,2.20
2022-12-31T10:42:46.141Z,2.10
2022-12-31T10:44:10.372Z,2.58
2022-12-31T10:45:51.773Z,2.05
2022-12-31T10:47:23.103Z,2.20
2022-12-31T10:49:06.223Z,2.28
2022-12-31T10:50:50.071Z,2.20
2022-12-31T10:52:41.898Z,2.10
2022-12-31T10:54:39.082Z,2.25
2022-12-31T10:56:12.227Z,2.13
2022-12-31T10:58:04.078Z,2.30
2022-12-31T11:00:04.861Z,2.17
2022-12-31T11:01:17.505Z,2.30
2022-12-31T11:02:46.878Z,2.08
2022-12-31T11:04:40.263Z,2.15
2022-12-31T11:06:13.945Z,2.55
2022-12-31T11:07:51.815Z,2.10
2022-12-31T11:09:34.750Z,2.13
2022-12-31T11:10:54.390Z,2.20
2022-12-31T11:12:06.263Z,2.50
2022-12-31T11:13:48.369Z,2.07
2022-12-31T11:15:17.028Z,2.45
2022-12-31T11:16:42.645Z,2.15
2022-12-31T11:18:00.391Z,2.55
2022-12-31T11:19:11.516Z,3.15
2022-12-31T11:20:32.539Z,3.00
2022-12-31T11:21:54.414Z,2.50
2022-12-31T11:23:05.824Z,2.67
2022-12-31T11:24:25.506Z,3.17
2022-12-31T11:25:39.141Z,2.35
2022-12-31T11:27:00.260Z,2.30
2022-12-31T11:28:29.690Z,3.10
2022-12-31T11:29:50.178Z,2.15
2022-12-31T11:31:19.143Z,2.55
2022-12-31T11:32:37.522Z,2.63
2022-12-31T11:33:51.639Z,2.78
2022-12-31T11:35:29.693Z,3.08
2022-12-31T11:36:42.495Z,3.15
2022-12-31T11:37:50.848Z,2.83
2022-12-31T11:39:02.144Z,2.40
2022-12-31T11:40:35.134Z,2.90
2022-12-31T11:41:47.681Z,3.20
2022-12-31T11:42:58.760Z,2.83
2022-12-31T11:44:13.991Z,3.30
2022-12-31T11:45:35.361Z,2.95
2022-12-31T11:47:10.483Z,2.90
2022-12-31T11:48:30.603Z,2.90
2022-12-31T11:49:53.821Z,2.83
2022-12-31T11:51:17.817Z,3.45
2022-12-31T11:52:40.349Z,2.90
2022-12-31T11:54:12.835Z,3.30
2022-12-31T11:55:36.462Z,3.05
2022-12-31T11:56:42.975Z,2.85
2022-12-31T11:57:49.705Z,3.47
2022-12-31T11:58:55.699Z,2.90
2022-12-31T12:00:00.462Z,2.95
2022-12-31T12:01:13.145Z,2.80
2022-12-31T12:02:27.485Z,2.42
2022-12-31T12:03:31.135Z,3.13
2022-12-31T12:04:34.622Z,3.28
2022-12-31T12:05:39.500Z,3.43
2022-12-31T12:06:43.754Z,2.85
2022-12-31T12:07:46.273Z,3.78
2022-12-31T12:08:50.431Z,3.92
2022-12-31T12:09:56.308Z,3.80
2022-12-31T12:11:06.568Z,3.83
2022-12-31T12:12:08.911Z,4.05
2022-12-31T12:13:19.898Z,3.60
2022-12-31T12:14:24.504Z,4.70
2022-12-31T12:15:29.224Z,3.80
2022-12-31T12:16:33.044Z,3.20
2022-12-31T12:17:35.889Z,4.03
2022-12-31T12:18:43.576Z,4.22
2022-12-31T12:19:47.989Z,4.28
2022-12-31T12:20:52.488Z,3.50
2022-12-31T12:21:57.225Z,3.90
2022-12-31T12:23:14.431Z,3.33
2022-12-31T12:24:21.553Z,3.70
2022-12-31T12:25:29.434Z,3.95
2022-12-31T12:26:37.234Z,3.40
2022-12-31T12:27:40.008Z,3.67
2022-12-31T12:28:46.361Z,3.53
2022-12-31T12:29:50.109Z,3.63
2022-12-31T12:31:00.301Z,2.70
2022-12-31T12:32:06.355Z,3.00
2022-12-31T12:33:18.371Z,3.08
2022-12-31T12:34:26.015Z,3.40
2022-12-31T12:35:31.086Z,3.22
2022-12-31T12:36:34.846Z,3.08
2022-12-31T12:37:37.470Z,2.90
2022-12-31T12:38:41.555Z,3.17
2022-12-31T12:39:45.309Z,3.17
2022-12-31T12:40:58.992Z,2.70
2022-12-31T12:42:04.818Z,2.85
2022-12-31T12:43:22.333Z,2.88
2022-12-31T12:44:26.030Z,2.92
2022-12-31T12:45:38.553Z,3.08
2022-12-31T12:46:48.391Z,2.67
2022-12-31T12:47:57.133Z,2.63
2022-12-31T12:49:00.534Z,2.78
2022-12-31T12:50:05.757Z,2.23
2022-12-31T12:51:22.795Z,2.90
2022-12-31T12:52:48.408Z,3.22
2022-12-31T12:54:02.856Z,2.95
2022-12-31T12:55:17.661Z,3.03
2022-12-31T12:56:31.852Z,2.80
2022-12-31T12:57:43.843Z,2.70
2022-12-31T12:58:58.730Z,3.35
2022-12-31T13:00:14.374Z,3.30
2022-12-31T13:01:27.753Z,3.45
2022-12-31T13:03:00.952Z,3.57
2022-12-31T13:04:33.922Z,3.50
2022-12-31T13:05:49.466Z,3.00
2022-12-31T13:07:06.727Z,3.25
2022-12-31T13:08:22.101Z,3.85
2022-12-31T13:09:39.315Z,3.72
2022-12-31T13:11:05.584Z,3.63
2022-12-31T13:12:20.760Z,3.53
2022-12-31T13:13:33.049Z,3.60
2022-12-31T13:14:46.870Z,3.47
2022-12-31T13:15:58.716Z,3.37
2022-12-31T13:17:15.705Z,3.92
2022-12-31T13:18:32.603Z,2.90
2022-12-31T13:19:43.228Z,3.25
2022-12-31T13:20:51.566Z,3.67
2022-12-31T13:22:00.482Z,3.72
2022-12-31T13:23:14.305Z,3.22
2022-12-31T13:24:30.847Z,4.10
2022-12-31T13:25:46.331Z,4.45
2022-12-31T13:26:55.408Z,3.80
2022-12-31T13:28:04.653Z,4.10
2022-12-31T13:29:16.367Z,4.22
2022-12-31T13:30:21.655Z,3.72
2022-12-31T13:31:31.698Z,4.28
2022-12-31T13:32:40.636Z,3.58
2022-12-31T13:33:48.492Z,3.88
2022-12-31T13:34:58.037Z,4.60
2022-12-31T13:36:04.504Z,3.35
2022-12-31T13:37:19.677Z,4.35
2022-12-31T13:38:26.832Z,4.40
2022-12-31T13:39:34.916Z,4.23
2022-12-31T13:40:47.727Z,3.53
2022-12-31T13:41:57.470Z,3.63
2022-12-31T13:43:07.566Z,3.78
2022-12-31T13:44:17.978Z,4.47
2022-12-31T13:45:26.176Z,4.00
2022-12-31T13:46:41.258Z,3.35
2022-12-31T13:47:48.779Z,3.30
2022-12-31T13:48:57.620Z,4.07
2022-12-31T13:50:14.187Z,3.38
2022-12-31T13:51:30.023Z,3.97
2022-12-31T13:52:37.794Z,3.20
2022-12-31T13:53:50.524Z,3.80
2022-12-31T13:54:59.613Z,3.28
2022-12-31T13:56:07.371Z,2.83
2022-12-31T13:57:19.980Z,2.78
2022-12-31T13:58:32.824Z,2.22
2022-12-31T13:59:40.531Z,2.38
2022-12-31T14:00:49.167Z,2.60
2022-12-31T14:01:56.533Z,2.20
2022-12-31T14:03:10.290Z,3.10
2022-12-31T14:04:20.198Z,2.60
2022-12-31T14:05:30.782Z,2.53
2022-12-31T14:06:42.871Z,2.05
2022-12-31T14:07:52.930Z,2.00
2022-12-31T14:08:56.560Z,2.30
2022-12-31T14:09:59.238Z,3.10
2022-12-31T14:11:09.859Z,2.50
2022-12-31T14:12:41.543Z,2.35
2022-12-31T14:14:01.661Z,2.70
2022-12-31T14:15:14.736Z,2.27
2022-12-31T14:16:25.253Z,2.60
2022-12-31T14:17:39.310Z,2.22
2022-12-31T14:18:48.404Z,2.95
2022-12-31T14:20:03.944Z,2.53
2022-12-31T14:21:13.295Z,2.33
2022-12-31T14:22:26.571Z,2.58
2022-12-31T14:23:41.562Z,1.83
2022-12-31T14:24:46.937Z,2.42
2022-12-31T14:25:53.603Z,2.60
2022-12-31T14:26:59.708Z,2.90
2022-12-31T14:28:05.687Z,2.42
2022-12-31T14:29:22.162Z,3.05
2022-12-31T14:30:31.055Z,2.47
2022-12-31T14:32:21.259Z,2.88
2022-12-31T14:33:35.790Z,2.95
2022-12-31T14:34:49.892Z,3.17
2022-12-31T14:36:05.214Z,2.42
2022-12-31T14:37:18.371Z,2.58
2022-12-31T14:38:34.619Z,2.85
2022-12-31T14:39:49.226Z,2.67
2022-12-31T14:41:07.937Z,2.38
2022-12-31T14:42:23.298Z,2.53
2022-12-31T14:43:36.902Z,2.38
2022-12-31T14:45:06.005Z,2.75
2022-12-31T14:46:19.497Z,2.20
2022-12-31T14:47:33.654Z,2.47
2022-12-31T14:48:49.563Z,2.80
2022-12-31T14:50:05.465Z,2.60
2022-12-31T14:51:09.452Z,2.70
2022-12-31T14:52:23.103Z,2.73
2022-12-31T14:53:28.404Z,3.17
2022-12-31T14:54:38.729Z,4.03
2022-12-31T14:55:42.517Z,2.60
2022-12-31T14:56:47.204Z,3.00
2022-12-31T14:59:27.192Z,2.75
2022-12-31T15:00:34.824Z,3.40
2022-12-31T15:01:46.487Z,2.50
2022-12-31T15:02:50.777Z,2.90
2022-12-31T15:03:57.962Z,2.83
2022-12-31T15:05:17.190Z,3.50
2022-12-31T15:06:43.200Z,2.90
2022-12-31T15:07:58.819Z,3.58
2022-12-31T15:09:14.361Z,2.90
2022-12-31T15:10:22.117Z,2.70
2022-12-31T15:11:41.269Z,3.15
2022-12-31T15:13:04.628Z,2.75
2022-12-31T15:14:25.849Z,3.22
2022-12-31T15:15:57.231Z,2.88
2022-12-31T15:17:10.525Z,3.47
2022-12-31T15:18:44.061Z,2.72
2022-12-31T15:20:16.996Z,3.17
2022-12-31T15:21:52.590Z,3.05
2022-12-31T15:22:56.720Z,4.20
2022-12-31T15:23:59.289Z,3.20
2022-12-31T15:25:03.146Z,2.78
2022-12-31T15:26:08.554Z,3.22
2022-12-31T15:27:30.651Z,2.90
2022-12-31T15:28:36.794Z,3.10
2022-12-31T15:29:45.841Z,3.17
2022-12-31T15:30:50.221Z,3.38
2022-12-31T15:31:56.619Z,3.25
2022-12-31T15:33:03.753Z,3.60
2022-12-31T15:34:09.011Z,3.17
2022-12-31T15:35:28.303Z,3.70
2022-12-31T15:36:33.437Z,3.08